Time;durP1;ratioP1;P1;durP2;ratioP2;P2;SDS_P1;SDS_P2;PMS_P1;PMS_P2;Temp;Humidity;BMP_temperature;BMP_pressure;BME280_temperature;BME280_humidity;BME280_pressure;Samples;Min_cycle;Max_cycle;Signal;HPM_P1;HPM_P2
2021/09/19 00:01:11;;;;;;;7.88;7.28;;;;;;;;;;5018296;28;20292;-70
2021/09/19 00:03:37;;;;;;;9.02;8.18;;;;;;;;;;5010815;28;20100;-70
2021/09/19 00:06:04;;;;;;;8.93;8.13;;;;;;;;;;5024308;28;20053;-70
2021/09/19 00:08:30;;;;;;;9.40;7.22;;;;;;;;;;5011559;28;20239;-70
2021/09/19 00:10:57;;;;;;;7.20;6.60;;;;;;;;;;5018421;28;20121;-70
2021/09/19 00:13:23;;;;;;;7.63;6.93;;;;;;;;;;5017809;28;20041;-70
2021/09/19 00:15:49;;;;;;;7.90;7.20;;;;;;;;;;5007591;28;20048;-70
2021/09/19 00:18:17;;;;;;;7.22;6.53;;;;;;;;;;5015295;28;20043;-70
2021/09/19 00:20:43;;;;;;;7.63;6.93;;;;;;;;;;4997667;28;20033;-70
2021/09/19 00:23:09;;;;;;;6.78;6.00;;;;;;;;;;5014991;28;20751;-70
2021/09/19 00:25:35;;;;;;;7.03;6.43;;;;;;;;;;5012127;28;20641;-70
2021/09/19 00:28:02;;;;;;;7.70;6.90;;;;;;;;;;5017898;28;20037;-70
2021/09/19 00:30:28;;;;;;;6.57;5.50;;;;;;;;;;5006781;28;20403;-70
2021/09/19 00:32:54;;;;;;;6.35;5.13;;;;;;;;;;5016243;28;20045;-69
2021/09/19 00:35:20;;;;;;;7.70;5.45;;;;;;;;;;4994533;28;20217;-70
2021/09/19 00:37:46;;;;;;;5.00;4.57;;;;;;;;;;5013019;28;20363;-70
2021/09/19 00:40:13;;;;;;;5.20;4.70;;;;;;;;;;5009784;28;20199;-70
2021/09/19 00:42:39;;;;;;;5.07;4.43;;;;;;;;;;5021216;28;20398;-69
2021/09/19 00:45:07;;;;;;;4.35;3.95;;;;;;;;;;5008045;28;20048;-70
2021/09/19 00:47:33;;;;;;;4.22;3.83;;;;;;;;;;5011772;28;20069;-70
2021/09/19 00:49:59;;;;;;;3.53;3.22;;;;;;;;;;5023630;28;20041;-69
2021/09/19 00:52:25;;;;;;;4.80;3.67;;;;;;;;;;5011068;28;20414;-70
2021/09/19 00:54:52;;;;;;;5.93;3.10;;;;;;;;;;4996275;28;20509;-70
2021/09/19 00:57:18;;;;;;;3.45;3.05;;;;;;;;;;5011265;28;20156;-70
2021/09/19 00:59:48;;;;;;;3.40;3.08;;;;;;;;;;5019717;28;20041;-70
2021/09/19 01:02:15;;;;;;;3.55;2.85;;;;;;;;;;5012364;28;20083;-70
2021/09/19 01:04:41;;;;;;;3.42;2.75;;;;;;;;;;5019297;28;20064;-70
2021/09/19 01:07:07;;;;;;;3.40;2.80;;;;;;;;;;5012284;28;20189;-70
2021/09/19 01:09:35;;;;;;;3.13;2.47;;;;;;;;;;5019228;28;20453;-70
2021/09/19 01:12:02;;;;;;;3.47;2.70;;;;;;;;;;5010478;28;20041;-70
2021/09/19 01:14:28;;;;;;;3.60;2.17;;;;;;;;;;5018277;28;20038;-70
2021/09/19 01:16:56;;;;;;;2.13;1.92;;;;;;;;;;5017335;28;20068;-70
2021/09/19 01:19:24;;;;;;;2.58;2.33;;;;;;;;;;5024283;28;20025;-70
2021/09/19 01:21:51;;;;;;;3.88;2.42;;;;;;;;;;5015822;28;20493;-70
2021/09/19 01:24:18;;;;;;;3.47;2.00;;;;;;;;;;5022197;28;20355;-70
2021/09/19 01:26:44;;;;;;;3.08;1.95;;;;;;;;;;5018343;28;20054;-70
2021/09/19 01:29:10;;;;;;;3.72;2.05;;;;;;;;;;5014065;28;20081;-70
2021/09/19 01:31:38;;;;;;;3.17;1.90;;;;;;;;;;5025959;28;20061;-69
2021/09/19 01:34:04;;;;;;;2.25;1.75;;;;;;;;;;5016082;28;20493;-70
2021/09/19 01:36:32;;;;;;;3.97;1.58;;;;;;;;;;5014680;28;20042;-69
2021/09/19 01:38:58;;;;;;;3.95;1.70;;;;;;;;;;5012761;28;20046;-69
2021/09/19 01:41:24;;;;;;;2.47;1.27;;;;;;;;;;5020004;28;20041;-69
2021/09/19 01:43:51;;;;;;;3.72;1.35;;;;;;;;;;5016911;28;20071;-69
2021/09/19 01:46:17;;;;;;;1.85;1.45;;;;;;;;;;5017055;28;20034;-69
2021/09/19 01:48:43;;;;;;;2.30;1.30;;;;;;;;;;5010655;28;20041;-69
2021/09/19 01:51:09;;;;;;;2.85;1.50;;;;;;;;;;5024297;28;20081;-69
2021/09/19 01:53:36;;;;;;;3.42;1.48;;;;;;;;;;5014716;28;20109;-70
2021/09/19 01:56:03;;;;;;;3.10;1.50;;;;;;;;;;5016847;28;20049;-70
2021/09/19 01:58:30;;;;;;;2.67;1.65;;;;;;;;;;5012894;28;20110;-69
2021/09/19 02:00:57;;;;;;;2.97;1.52;;;;;;;;;;4997640;28;20107;-69
2021/09/19 02:03:23;;;;;;;2.53;1.30;;;;;;;;;;5012794;28;20057;-70
2021/09/19 02:05:49;;;;;;;2.55;1.70;;;;;;;;;;5024712;28;20414;-69
2021/09/19 02:08:16;;;;;;;3.55;1.52;;;;;;;;;;5006978;28;20085;-70
2021/09/19 02:10:42;;;;;;;1.65;1.30;;;;;;;;;;5013643;28;20077;-70
2021/09/19 02:13:08;;;;;;;2.67;1.58;;;;;;;;;;5015327;28;20046;-70
2021/09/19 02:15:34;;;;;;;2.92;1.52;;;;;;;;;;5010177;28;20038;-70
2021/09/19 02:18:00;;;;;;;3.67;1.90;;;;;;;;;;5013466;28;20041;-70
2021/09/19 02:20:27;;;;;;;3.90;1.63;;;;;;;;;;5017056;28;20182;-70
2021/09/19 02:22:53;;;;;;;2.88;1.63;;;;;;;;;;5021974;28;20057;-70
2021/09/19 02:25:19;;;;;;;3.67;1.63;;;;;;;;;;5007928;28;20068;-70
2021/09/19 02:27:45;;;;;;;3.08;2.00;;;;;;;;;;5016754;28;20042;-70
2021/09/19 02:30:13;;;;;;;2.78;1.60;;;;;;;;;;5011384;28;20098;-70
2021/09/19 02:32:39;;;;;;;5.22;2.13;;;;;;;;;;5014317;28;20075;-70
2021/09/19 02:35:07;;;;;;;3.13;1.90;;;;;;;;;;5007056;28;20045;-69
2021/09/19 02:37:33;;;;;;;3.30;2.00;;;;;;;;;;5018771;28;20168;-69
2021/09/19 02:39:59;;;;;;;5.05;2.67;;;;;;;;;;5007521;28;20123;-68
2021/09/19 02:42:25;;;;;;;4.95;1.95;;;;;;;;;;4998018;28;20065;-69
2021/09/19 02:44:51;;;;;;;4.10;2.30;;;;;;;;;;5010175;28;20076;-69
2021/09/19 02:47:17;;;;;;;3.15;2.22;;;;;;;;;;5016162;28;20040;-69
2021/09/19 02:49:43;;;;;;;3.15;2.13;;;;;;;;;;5016644;28;20465;-69
2021/09/19 02:52:09;;;;;;;3.30;2.45;;;;;;;;;;5011662;28;20470;-69
2021/09/19 02:54:35;;;;;;;4.38;2.28;;;;;;;;;;5014998;28;20041;-69
2021/09/19 02:57:01;;;;;;;3.72;2.55;;;;;;;;;;4998877;28;20103;-69
2021/09/19 02:59:29;;;;;;;3.00;2.55;;;;;;;;;;5010944;28;20078;-69
2021/09/19 03:01:55;;;;;;;3.78;2.40;;;;;;;;;;5020194;28;20057;-69
2021/09/19 03:04:21;;;;;;;5.05;2.60;;;;;;;;;;5003118;28;20069;-69
2021/09/19 03:06:47;;;;;;;5.07;2.80;;;;;;;;;;5007613;28;20049;-69
2021/09/19 03:09:13;;;;;;;4.40;3.03;;;;;;;;;;5013706;28;20508;-69
2021/09/19 03:11:39;;;;;;;4.03;3.38;;;;;;;;;;5017563;28;20081;-69
2021/09/19 03:14:05;;;;;;;6.63;3.25;;;;;;;;;;5019144;28;20048;-69
2021/09/19 03:16:31;;;;;;;5.78;3.42;;;;;;;;;;4995456;28;20050;-69
2021/09/19 03:18:58;;;;;;;5.60;3.35;;;;;;;;;;5013569;28;20041;-69
2021/09/19 03:21:24;;;;;;;5.63;3.55;;;;;;;;;;4999524;28;20325;-69
2021/09/19 03:23:50;;;;;;;7.47;3.53;;;;;;;;;;5020594;28;20077;-69
2021/09/19 03:26:16;;;;;;;4.95;3.50;;;;;;;;;;5008148;28;20095;-70
2021/09/19 03:28:42;;;;;;;4.50;3.50;;;;;;;;;;5015629;28;20044;-69
2021/09/19 03:31:08;;;;;;;7.05;3.60;;;;;;;;;;5014057;28;20072;-69
2021/09/19 03:33:34;;;;;;;5.00;3.88;;;;;;;;;;5012857;28;20351;-69
2021/09/19 03:36:00;;;;;;;6.40;4.20;;;;;;;;;;5012503;28;20042;-69
2021/09/19 03:38:26;;;;;;;4.97;3.90;;;;;;;;;;5017184;28;20473;-69
2021/09/19 03:40:52;;;;;;;6.60;3.90;;;;;;;;;;5023450;28;20135;-69
2021/09/19 03:43:18;;;;;;;5.47;4.40;;;;;;;;;;5010956;28;20117;-69
2021/09/19 03:45:44;;;;;;;4.43;3.60;;;;;;;;;;5015300;28;20137;-69
2021/09/19 03:48:10;;;;;;;6.47;4.20;;;;;;;;;;4993109;28;20132;-69
2021/09/19 03:50:36;;;;;;;5.07;4.45;;;;;;;;;;5014965;28;20123;-69
2021/09/19 03:53:02;;;;;;;6.53;4.80;;;;;;;;;;5011824;28;20347;-69
2021/09/19 03:55:29;;;;;;;5.13;4.60;;;;;;;;;;5015239;28;20034;-69
2021/09/19 03:57:55;;;;;;;7.07;4.55;;;;;;;;;;5007471;28;20045;-69
2021/09/19 04:00:21;;;;;;;8.65;4.85;;;;;;;;;;5012159;28;20083;-69
2021/09/19 04:02:47;;;;;;;6.50;5.05;;;;;;;;;;5009205;28;20077;-69
2021/09/19 04:05:13;;;;;;;6.18;4.65;;;;;;;;;;5019855;28;20510;-69
2021/09/19 04:07:40;;;;;;;5.88;4.82;;;;;;;;;;5011017;28;20045;-69
2021/09/19 04:10:07;;;;;;;5.22;4.72;;;;;;;;;;5006880;28;20466;-69
2021/09/19 04:12:33;;;;;;;6.03;5.05;;;;;;;;;;5020377;28;20111;-69
2021/09/19 04:14:59;;;;;;;6.25;4.90;;;;;;;;;;5012127;28;20049;-69
2021/09/19 04:17:26;;;;;;;5.43;4.65;;;;;;;;;;5010711;28;20069;-68
2021/09/19 04:19:52;;;;;;;5.40;4.78;;;;;;;;;;5011819;28;20509;-69
2021/09/19 04:22:18;;;;;;;5.90;5.22;;;;;;;;;;5018728;28;20091;-69
2021/09/19 04:24:44;;;;;;;7.88;5.00;;;;;;;;;;5014780;28;20701;-69
2021/09/19 04:27:10;;;;;;;6.72;5.03;;;;;;;;;;5011325;28;20042;-68
2021/09/19 04:29:37;;;;;;;5.95;4.80;;;;;;;;;;5011121;28;20478;-68
2021/09/19 04:32:03;;;;;;;5.68;4.82;;;;;;;;;;5012171;28;20118;-69
2021/09/19 04:34:30;;;;;;;6.80;4.95;;;;;;;;;;5010193;28;20057;-69
2021/09/19 04:36:56;;;;;;;7.15;5.78;;;;;;;;;;5027394;28;20104;-69
2021/09/19 04:39:22;;;;;;;8.13;4.97;;;;;;;;;;5014063;28;20414;-69
2021/09/19 04:41:48;;;;;;;5.72;4.65;;;;;;;;;;5019752;28;20526;-69
2021/09/19 04:44:14;;;;;;;6.55;5.57;;;;;;;;;;5010724;28;20460;-69
2021/09/19 04:46:40;;;;;;;7.80;4.93;;;;;;;;;;5022803;28;20037;-69
2021/09/19 04:49:06;;;;;;;6.63;5.25;;;;;;;;;;5026556;28;20052;-69
2021/09/19 04:51:32;;;;;;;6.50;4.70;;;;;;;;;;5014090;28;20056;-69
2021/09/19 04:53:58;;;;;;;6.95;5.07;;;;;;;;;;5016514;28;20081;-69
2021/09/19 04:56:24;;;;;;;7.60;4.68;;;;;;;;;;5010250;28;20080;-69
2021/09/19 04:58:50;;;;;;;7.93;5.28;;;;;;;;;;5018105;28;20439;-69
2021/09/19 05:01:17;;;;;;;6.80;5.07;;;;;;;;;;5013404;28;20375;-69
2021/09/19 05:03:43;;;;;;;6.00;4.47;;;;;;;;;;5020497;28;20037;-69
2021/09/19 05:06:09;;;;;;;7.32;4.70;;;;;;;;;;5011657;28;20085;-69
2021/09/19 05:08:35;;;;;;;6.85;4.55;;;;;;;;;;5014494;28;20045;-69
2021/09/19 05:11:01;;;;;;;8.25;4.68;;;;;;;;;;5009585;28;20053;-68
2021/09/19 05:13:28;;;;;;;6.25;4.68;;;;;;;;;;5016284;28;20046;-68
2021/09/19 05:15:54;;;;;;;6.43;4.35;;;;;;;;;;5010837;28;20082;-69
2021/09/19 05:18:20;;;;;;;6.93;4.75;;;;;;;;;;5016828;28;20041;-69
2021/09/19 05:20:46;;;;;;;7.25;4.75;;;;;;;;;;5009870;28;20038;-69
2021/09/19 05:23:12;;;;;;;6.85;4.30;;;;;;;;;;5017329;28;20413;-68
2021/09/19 05:25:39;;;;;;;7.18;4.88;;;;;;;;;;5016292;28;20037;-68
2021/09/19 05:28:05;;;;;;;6.63;4.53;;;;;;;;;;5008449;28;20132;-68
2021/09/19 05:30:31;;;;;;;7.00;5.00;;;;;;;;;;5017880;28;20513;-69
2021/09/19 05:32:57;;;;;;;7.43;4.60;;;;;;;;;;5011169;28;20121;-69
2021/09/19 05:35:24;;;;;;;9.85;4.75;;;;;;;;;;5017745;28;20191;-69
2021/09/19 05:37:50;;;;;;;5.47;4.28;;;;;;;;;;5009436;28;20136;-69
2021/09/19 05:40:16;;;;;;;8.93;5.07;;;;;;;;;;5017309;28;20037;-69
2021/09/19 05:42:42;;;;;;;8.02;5.57;;;;;;;;;;5011645;28;20100;-70
2021/09/19 05:45:09;;;;;;;11.93;4.95;;;;;;;;;;5020625;28;20080;-70
2021/09/19 05:47:35;;;;;;;7.68;4.60;;;;;;;;;;5015828;28;20056;-68
2021/09/19 05:50:01;;;;;;;5.80;5.18;;;;;;;;;;5021686;28;20132;-69
2021/09/19 05:52:27;;;;;;;7.30;5.15;;;;;;;;;;5011145;28;20038;-70
2021/09/19 05:54:53;;;;;;;7.07;5.57;;;;;;;;;;5020702;28;20055;-68
2021/09/19 05:57:21;;;;;;;9.27;6.30;;;;;;;;;;5010904;28;20054;-69
2021/09/19 05:59:47;;;;;;;6.63;5.60;;;;;;;;;;5018770;28;20045;-70
2021/09/19 06:02:13;;;;;;;7.10;5.55;;;;;;;;;;5017161;28;20053;-69
2021/09/19 06:04:39;;;;;;;7.43;6.07;;;;;;;;;;5021628;28;20057;-69
2021/09/19 06:07:05;;;;;;;11.02;5.72;;;;;;;;;;5013919;28;20498;-69
2021/09/19 06:09:32;;;;;;;10.20;5.80;;;;;;;;;;4994564;28;20045;-69
2021/09/19 06:11:58;;;;;;;9.13;5.93;;;;;;;;;;5015734;28;20038;-69
2021/09/19 06:14:24;;;;;;;9.18;6.18;;;;;;;;;;5017629;28;20050;-69
2021/09/19 06:16:50;;;;;;;8.80;6.22;;;;;;;;;;5023568;28;20052;-69
2021/09/19 06:19:16;;;;;;;9.98;6.40;;;;;;;;;;5011737;28;20052;-69
2021/09/19 06:21:42;;;;;;;8.13;6.57;;;;;;;;;;5019428;28;20054;-69
2021/09/19 06:24:08;;;;;;;14.20;10.95;;;;;;;;;;5012087;28;20164;-69
2021/09/19 06:26:34;;;;;;;9.82;6.65;;;;;;;;;;5017841;28;20068;-69
2021/09/19 06:29:00;;;;;;;7.35;5.78;;;;;;;;;;5012317;28;20160;-68
2021/09/19 06:31:27;;;;;;;8.80;6.22;;;;;;;;;;5021035;28;20049;-70
2021/09/19 06:33:53;;;;;;;7.25;5.88;;;;;;;;;;5012502;28;20060;-69
2021/09/19 06:36:19;;;;;;;8.57;6.05;;;;;;;;;;5024509;28;20061;-69
2021/09/19 06:38:45;;;;;;;7.78;6.05;;;;;;;;;;5014440;28;20033;-69
2021/09/19 06:41:11;;;;;;;9.85;6.15;;;;;;;;;;5020738;28;20129;-69
2021/09/19 06:43:37;;;;;;;8.65;6.35;;;;;;;;;;5018104;28;20402;-69
2021/09/19 06:46:03;;;;;;;8.55;6.35;;;;;;;;;;4991127;28;20554;-69
2021/09/19 06:48:30;;;;;;;6.93;6.07;;;;;;;;;;5017083;28;20754;-69
2021/09/19 06:50:56;;;;;;;7.47;5.53;;;;;;;;;;5015377;28;21019;-68
2021/09/19 06:53:22;;;;;;;10.00;6.28;;;;;;;;;;5023457;28;20049;-69
2021/09/19 06:55:48;;;;;;;7.18;6.32;;;;;;;;;;4995584;28;20049;-69
2021/09/19 06:58:14;;;;;;;8.30;6.00;;;;;;;;;;5014403;28;20057;-70
2021/09/19 07:00:40;;;;;;;7.80;6.22;;;;;;;;;;5010710;28;20038;-70
2021/09/19 07:03:06;;;;;;;8.88;6.28;;;;;;;;;;5013994;28;20561;-69
2021/09/19 07:05:32;;;;;;;8.18;6.82;;;;;;;;;;5009923;28;20046;-69
2021/09/19 07:07:58;;;;;;;8.85;5.63;;;;;;;;;;5014212;28;20057;-69
2021/09/19 07:10:24;;;;;;;7.20;5.85;;;;;;;;;;4994020;28;20144;-69
2021/09/19 07:12:50;;;;;;;7.72;5.80;;;;;;;;;;5013030;28;20111;-69
2021/09/19 07:15:16;;;;;;;8.15;6.30;;;;;;;;;;5015151;28;20045;-69
2021/09/19 07:17:42;;;;;;;9.45;6.07;;;;;;;;;;5018083;28;20037;-68
2021/09/19 07:20:09;;;;;;;10.07;6.70;;;;;;;;;;5012446;28;20057;-69
2021/09/19 07:22:36;;;;;;;8.93;6.43;;;;;;;;;;5013798;28;20072;-69
2021/09/19 07:25:02;;;;;;;8.48;7.05;;;;;;;;;;5013442;28;20061;-69
2021/09/19 07:27:28;;;;;;;7.15;6.28;;;;;;;;;;5009093;28;20068;-68
2021/09/19 07:29:54;;;;;;;9.50;6.38;;;;;;;;;;5021565;28;20076;-68
2021/09/19 07:32:20;;;;;;;9.82;7.13;;;;;;;;;;5011379;28;20136;-69
2021/09/19 07:34:46;;;;;;;7.65;6.60;;;;;;;;;;5012776;28;20481;-69
2021/09/19 07:37:12;;;;;;;12.48;7.40;;;;;;;;;;5013605;28;20037;-69
2021/09/19 07:39:39;;;;;;;7.20;6.50;;;;;;;;;;5018945;28;20120;-68
2021/09/19 07:42:05;;;;;;;8.20;6.57;;;;;;;;;;5012263;28;20478;-69
2021/09/19 07:44:33;;;;;;;7.75;7.00;;;;;;;;;;5015677;28;20132;-68
2021/09/19 07:47:00;;;;;;;8.13;7.07;;;;;;;;;;5010948;28;20509;-68
2021/09/19 07:49:28;;;;;;;8.00;7.15;;;;;;;;;;5022982;28;20407;-68
2021/09/19 07:51:54;;;;;;;9.57;7.13;;;;;;;;;;5015040;28;20164;-69
2021/09/19 07:54:21;;;;;;;10.32;7.07;;;;;;;;;;5015332;28;20091;-69
2021/09/19 07:56:47;;;;;;;9.50;7.05;;;;;;;;;;5009070;28;20352;-69
2021/09/19 07:59:13;;;;;;;8.05;7.25;;;;;;;;;;5017218;28;20548;-69
2021/09/19 08:01:39;;;;;;;11.30;8.45;;;;;;;;;;5016959;28;20053;-68
2021/09/19 08:04:05;;;;;;;10.98;7.72;;;;;;;;;;5011050;28;20041;-68
2021/09/19 08:06:32;;;;;;;8.13;7.32;;;;;;;;;;5002017;28;20054;-68
2021/09/19 08:08:58;;;;;;;8.63;7.30;;;;;;;;;;5008272;28;20631;-69
2021/09/19 08:11:24;;;;;;;8.82;6.70;;;;;;;;;;5024943;28;20044;-68
2021/09/19 08:13:55;;;;;;;8.10;7.00;;;;;;;;;;5012736;28;20041;-68
2021/09/19 08:16:21;;;;;;;8.48;7.18;;;;;;;;;;5019651;28;20050;-69
2021/09/19 08:18:47;;;;;;;9.25;7.10;;;;;;;;;;5009650;28;20265;-69
2021/09/19 08:21:13;;;;;;;9.00;7.03;;;;;;;;;;5016284;28;20049;-69
2021/09/19 08:23:39;;;;;;;9.68;7.50;;;;;;;;;;5017436;28;20041;-69
2021/09/19 08:26:05;;;;;;;11.43;7.25;;;;;;;;;;5017375;28;20068;-68
2021/09/19 08:28:31;;;;;;;8.95;7.40;;;;;;;;;;5010408;28;20573;-70
2021/09/19 08:30:57;;;;;;;10.13;7.18;;;;;;;;;;5019745;28;20121;-70
2021/09/19 08:33:27;;;;;;;9.45;7.10;;;;;;;;;;5014682;28;20048;-70
2021/09/19 08:35:55;;;;;;;7.57;6.78;;;;;;;;;;5025665;28;20076;-69
2021/09/19 08:38:21;;;;;;;9.50;7.03;;;;;;;;;;5009966;28;20052;-70
2021/09/19 08:40:47;;;;;;;8.20;6.20;;;;;;;;;;5011568;28;20093;-69
2021/09/19 08:43:15;;;;;;;9.93;6.72;;;;;;;;;;5023668;28;20049;-69
2021/09/19 08:45:42;;;;;;;9.77;6.55;;;;;;;;;;5015478;28;20050;-70
2021/09/19 08:48:10;;;;;;;8.43;6.40;;;;;;;;;;5018184;28;20498;-70
2021/09/19 08:50:36;;;;;;;9.10;6.45;;;;;;;;;;5014348;28;20060;-70
2021/09/19 08:53:02;;;;;;;8.55;6.45;;;;;;;;;;5018981;28;20062;-70
2021/09/19 08:55:28;;;;;;;7.55;6.22;;;;;;;;;;5015198;28;20045;-65
2021/09/19 08:57:54;;;;;;;7.18;6.22;;;;;;;;;;5023125;28;20048;-67
2021/09/19 09:00:20;;;;;;;7.32;6.60;;;;;;;;;;5018092;28;20033;-66
2021/09/19 09:02:48;;;;;;;8.98;6.15;;;;;;;;;;5024382;28;20046;-65
2021/09/19 09:05:21;;;;;;;7.78;6.47;;;;;;;;;;5020769;28;20084;-65
2021/09/19 09:07:48;;;;;;;6.97;6.07;;;;;;;;;;5023452;28;20483;-65
2021/09/19 09:10:14;;;;;;;6.88;5.88;;;;;;;;;;5014624;28;20080;-66
2021/09/19 09:12:41;;;;;;;8.98;6.38;;;;;;;;;;5029403;28;20045;-66
2021/09/19 09:15:08;;;;;;;7.97;6.30;;;;;;;;;;5017731;28;20037;-70
2021/09/19 09:17:34;;;;;;;6.95;6.22;;;;;;;;;;5022718;28;20072;-70
2021/09/19 09:20:01;;;;;;;6.97;6.28;;;;;;;;;;5013967;28;20042;-71
2021/09/19 09:22:32;;;;;;;7.00;6.13;;;;;;;;;;5017105;28;20068;-70
2021/09/19 09:25:12;;;;;;;6.75;6.07;;;;;;;;;;5011421;28;20049;-70
2021/09/19 09:27:38;;;;;;;8.20;6.35;;;;;;;;;;5024621;28;20045;-70
2021/09/19 09:30:05;;;;;;;7.45;5.65;;;;;;;;;;5019344;28;20081;-70
2021/09/19 09:32:31;;;;;;;8.18;6.28;;;;;;;;;;5017309;28;20148;-70
2021/09/19 09:35:10;;;;;;;6.55;5.88;;;;;;;;;;5020882;28;20041;-70
2021/09/19 09:37:40;;;;;;;7.10;6.30;;;;;;;;;;5017654;28;20045;-70
2021/09/19 09:40:14;;;;;;;7.65;6.00;;;;;;;;;;5010696;28;20065;-70
2021/09/19 09:42:59;;;;;;;7.13;5.90;;;;;;;;;;5013668;28;20077;-70
2021/09/19 09:45:26;;;;;;;6.65;5.90;;;;;;;;;;5017285;28;20645;-71
2021/09/19 09:47:52;;;;;;;6.65;5.18;;;;;;;;;;5010615;28;20049;-70
2021/09/19 09:50:24;;;;;;;6.53;5.65;;;;;;;;;;5004085;28;20060;-70
2021/09/19 09:52:52;;;;;;;6.15;5.47;;;;;;;;;;5013154;28;20078;-68
2021/09/19 09:55:21;;;;;;;6.47;5.50;;;;;;;;;;4996345;28;20447;-68
2021/09/19 09:57:57;;;;;;;5.68;4.95;;;;;;;;;;5019100;28;20148;-69
2021/09/19 10:00:23;;;;;;;5.68;5.07;;;;;;;;;;5024404;28;20033;-69
2021/09/19 10:02:51;;;;;;;7.13;4.85;;;;;;;;;;5014132;28;20060;-70
2021/09/19 10:05:18;;;;;;;6.22;5.40;;;;;;;;;;5020827;28;20045;-69
2021/09/19 10:07:45;;;;;;;6.90;4.82;;;;;;;;;;5019701;28;20637;-70
2021/09/19 10:10:12;;;;;;;4.70;4.30;;;;;;;;;;5019188;28;20503;-69
2021/09/19 10:12:39;;;;;;;5.07;4.57;;;;;;;;;;5010958;28;20132;-69
2021/09/19 10:15:06;;;;;;;5.72;4.00;;;;;;;;;;5017897;28;20037;-69
2021/09/19 10:17:33;;;;;;;8.15;4.20;;;;;;;;;;5013956;28;20042;-70
2021/09/19 10:19:59;;;;;;;4.75;4.25;;;;;;;;;;5017465;28;20409;-70
2021/09/19 10:22:31;;;;;;;5.32;3.67;;;;;;;;;;5010398;28;20050;-69
2021/09/19 10:24:57;;;;;;;3.90;3.53;;;;;;;;;;5017062;28;20520;-69
2021/09/19 10:27:29;;;;;;;4.88;3.67;;;;;;;;;;5023631;28;20092;-69
2021/09/19 10:30:01;;;;;;;4.10;3.70;;;;;;;;;;5021298;28;20496;-69
2021/09/19 10:32:42;;;;;;;4.10;3.70;;;;;;;;;;5016967;28;20509;-69
2021/09/19 10:35:12;;;;;;;5.60;3.30;;;;;;;;;;5017035;28;20084;-70
2021/09/19 10:38:00;;;;;;;4.75;3.35;;;;;;;;;;5009802;28;20397;-70
2021/09/19 10:40:34;;;;;;;5.55;3.80;;;;;;;;;;5014623;28;20081;-69
2021/09/19 10:43:02;;;;;;;6.28;3.15;;;;;;;;;;5025663;28;20092;-66
2021/09/19 10:45:42;;;;;;;4.47;3.75;;;;;;;;;;5016923;28;20052;-70
2021/09/19 10:48:13;;;;;;;6.95;3.80;;;;;;;;;;5016267;28;20089;-71
2021/09/19 10:50:39;;;;;;;5.90;3.33;;;;;;;;;;5017166;28;20050;-71
2021/09/19 10:53:06;;;;;;;4.25;3.55;;;;;;;;;;5013437;28;20045;-71
2021/09/19 10:55:48;;;;;;;3.92;3.40;;;;;;;;;;5019581;28;20045;-71
2021/09/19 10:58:15;;;;;;;4.78;3.60;;;;;;;;;;5025089;28;20045;-70
2021/09/19 11:00:45;;;;;;;4.82;3.50;;;;;;;;;;5018513;28;20490;-70
2021/09/19 11:03:14;;;;;;;6.43;4.28;;;;;;;;;;5003328;28;20064;-72
2021/09/19 11:05:45;;;;;;;4.65;3.80;;;;;;;;;;5015206;28;20386;-73
2021/09/19 11:08:16;;;;;;;3.60;3.28;;;;;;;;;;5018341;28;20065;-70
2021/09/19 11:10:45;;;;;;;5.38;3.28;;;;;;;;;;5012598;28;20709;-69
2021/09/19 11:13:26;;;;;;;3.80;3.28;;;;;;;;;;5021055;28;20037;-70
2021/09/19 11:16:04;;;;;;;4.13;2.92;;;;;;;;;;5016998;28;20093;-69
2021/09/19 11:18:40;;;;;;;5.38;3.63;;;;;;;;;;5016804;28;20038;-65
2021/09/19 11:21:12;;;;;;;5.10;4.20;;;;;;;;;;5016046;28;20059;-65
2021/09/19 11:23:42;;;;;;;4.70;3.50;;;;;;;;;;5017507;28;20045;-65
2021/09/19 11:26:10;;;;;;;3.53;3.22;;;;;;;;;;5012442;28;20124;-65
2021/09/19 11:28:37;;;;;;;6.07;3.20;;;;;;;;;;5024148;28;20053;-65
2021/09/19 11:31:03;;;;;;;4.72;3.20;;;;;;;;;;5012260;28;20045;-66
2021/09/19 11:33:32;;;;;;;4.65;3.50;;;;;;;;;;5015686;28;20069;-64
2021/09/19 11:36:09;;;;;;;4.00;3.17;;;;;;;;;;5012136;28;20049;-65
2021/09/19 11:38:39;;;;;;;3.72;2.70;;;;;;;;;;5017687;28;20042;-68
2021/09/19 11:41:06;;;;;;;4.55;2.75;;;;;;;;;;5019713;28;20045;-68
2021/09/19 11:43:33;;;;;;;4.10;2.25;;;;;;;;;;5024018;28;20045;-68
2021/09/19 11:46:00;;;;;;;4.72;3.03;;;;;;;;;;5014595;28;20049;-68
2021/09/19 11:48:26;;;;;;;4.25;3.05;;;;;;;;;;5023391;28;20035;-69
2021/09/19 11:50:53;;;;;;;3.25;2.85;;;;;;;;;;5018395;28;20127;-71
2021/09/19 11:53:19;;;;;;;4.78;2.90;;;;;;;;;;5023930;28;20064;-70
2021/09/19 11:55:46;;;;;;;5.20;3.38;;;;;;;;;;5017354;28;20129;-69
2021/09/19 11:58:16;;;;;;;5.10;3.08;;;;;;;;;;5008619;28;20099;-69
2021/09/19 12:00:42;;;;;;;6.05;2.72;;;;;;;;;;5021043;28;20512;-69
2021/09/19 12:03:08;;;;;;;2.97;2.60;;;;;;;;;;5013353;28;20564;-69
2021/09/19 12:05:34;;;;;;;3.42;3.10;;;;;;;;;;5015512;28;20150;-69
2021/09/19 12:08:01;;;;;;;3.75;3.20;;;;;;;;;;5006944;28;20065;-68
2021/09/19 12:10:27;;;;;;;3.78;2.58;;;;;;;;;;5026045;28;20472;-69
2021/09/19 12:12:53;;;;;;;3.38;2.70;;;;;;;;;;5008128;28;20041;-69
2021/09/19 12:15:26;;;;;;;4.22;2.85;;;;;;;;;;5021084;28;20045;-69
2021/09/19 12:18:12;;;;;;;4.40;2.25;;;;;;;;;;5009304;28;20049;-69
2021/09/19 12:20:55;;;;;;;3.35;2.50;;;;;;;;;;5024964;28;20053;-69
2021/09/19 12:23:22;;;;;;;2.65;1.85;;;;;;;;;;5007145;28;20042;-69
2021/09/19 12:25:48;;;;;;;2.88;1.75;;;;;;;;;;5015745;28;20518;-69
2021/09/19 12:28:28;;;;;;;3.35;2.03;;;;;;;;;;5009594;28;20049;-68
2021/09/19 12:30:54;;;;;;;2.78;1.90;;;;;;;;;;5010923;28;20084;-69
2021/09/19 12:33:20;;;;;;;5.20;2.53;;;;;;;;;;5008767;28;20041;-69
2021/09/19 12:35:46;;;;;;;3.60;2.22;;;;;;;;;;5015999;28;20058;-68
2021/09/19 12:38:14;;;;;;;3.25;2.33;;;;;;;;;;5006686;28;20049;-68
2021/09/19 12:40:40;;;;;;;4.50;2.00;;;;;;;;;;5012675;28;20058;-70
2021/09/19 12:43:08;;;;;;;4.57;2.65;;;;;;;;;;5012706;28;20513;-68
2021/09/19 12:45:34;;;;;;;3.70;2.42;;;;;;;;;;5024121;28;20037;-67
2021/09/19 12:48:00;;;;;;;3.40;2.47;;;;;;;;;;5018556;28;20049;-67
2021/09/19 12:50:27;;;;;;;5.22;2.28;;;;;;;;;;5014985;28;20068;-67
2021/09/19 12:52:58;;;;;;;2.70;1.95;;;;;;;;;;5015737;28;20207;-68
2021/09/19 12:55:24;;;;;;;3.45;2.38;;;;;;;;;;5010749;28;20072;-69
2021/09/19 12:57:50;;;;;;;3.40;2.70;;;;;;;;;;5015820;28;20037;-68
2021/09/19 13:00:18;;;;;;;3.85;3.10;;;;;;;;;;5012396;28;20398;-68
2021/09/19 13:02:57;;;;;;;4.70;3.20;;;;;;;;;;5022060;28;20037;-68
2021/09/19 13:05:23;;;;;;;4.78;2.55;;;;;;;;;;5008521;28;20054;-68
2021/09/19 13:07:49;;;;;;;4.55;2.80;;;;;;;;;;5015352;28;20052;-69
2021/09/19 13:10:15;;;;;;;4.93;2.60;;;;;;;;;;5003607;28;20102;-68
2021/09/19 13:12:41;;;;;;;5.35;2.40;;;;;;;;;;5025776;28;20210;-68
2021/09/19 13:15:08;;;;;;;4.82;2.90;;;;;;;;;;5010262;28;20045;-68
2021/09/19 13:17:34;;;;;;;3.60;2.55;;;;;;;;;;5017815;28;20135;-68
2021/09/19 13:20:00;;;;;;;6.28;3.00;;;;;;;;;;5013400;28;20426;-68
2021/09/19 13:22:26;;;;;;;6.25;2.80;;;;;;;;;;5019995;28;20155;-68
2021/09/19 13:24:52;;;;;;;5.70;2.70;;;;;;;;;;5014595;28;20448;-68
2021/09/19 13:27:19;;;;;;;3.67;2.38;;;;;;;;;;5017408;28;20459;-69
2021/09/19 13:29:46;;;;;;;2.83;2.38;;;;;;;;;;5015180;28;20107;-69
2021/09/19 13:32:12;;;;;;;3.22;2.22;;;;;;;;;;5023910;28;20091;-68
2021/09/19 13:34:38;;;;;;;5.15;2.40;;;;;;;;;;5012050;28;20033;-68
2021/09/19 13:37:04;;;;;;;3.58;2.30;;;;;;;;;;5025644;28;20049;-68
2021/09/19 13:39:30;;;;;;;5.25;2.70;;;;;;;;;;5017029;28;20044;-68
2021/09/19 13:41:56;;;;;;;5.53;2.40;;;;;;;;;;5008613;28;20136;-68
2021/09/19 13:44:22;;;;;;;3.92;2.53;;;;;;;;;;5013671;28;20053;-68
2021/09/19 13:46:49;;;;;;;5.07;2.60;;;;;;;;;;5020295;28;20099;-68
2021/09/19 13:49:20;;;;;;;4.38;3.22;;;;;;;;;;5022685;28;20073;-67
2021/09/19 13:51:46;;;;;;;5.07;3.47;;;;;;;;;;5011047;28;20792;-68
2021/09/19 13:54:12;;;;;;;3.75;2.80;;;;;;;;;;5015645;28;20125;-68
2021/09/19 13:56:38;;;;;;;4.75;2.70;;;;;;;;;;5011290;28;20326;-68
2021/09/19 13:59:04;;;;;;;4.43;3.08;;;;;;;;;;5017559;28;20037;-67
2021/09/19 14:01:31;;;;;;;4.25;2.80;;;;;;;;;;5020307;28;20505;-68
2021/09/19 14:03:57;;;;;;;4.00;3.10;;;;;;;;;;5018684;28;20052;-68
2021/09/19 14:06:23;;;;;;;3.83;3.25;;;;;;;;;;5012318;28;20509;-68
2021/09/19 14:08:49;;;;;;;5.60;3.92;;;;;;;;;;5018472;28;20042;-68
2021/09/19 14:11:15;;;;;;;5.05;3.53;;;;;;;;;;5011396;28;20124;-68
2021/09/19 14:13:41;;;;;;;4.72;3.33;;;;;;;;;;5023952;28;20554;-68
2021/09/19 14:16:09;;;;;;;4.18;3.03;;;;;;;;;;5023514;28;20432;-68
2021/09/19 14:18:35;;;;;;;6.20;3.60;;;;;;;;;;5010225;28;20042;-68
2021/09/19 14:21:01;;;;;;;7.00;3.20;;;;;;;;;;5016382;28;20089;-67
2021/09/19 14:23:27;;;;;;;5.43;3.78;;;;;;;;;;5016275;28;20119;-68
2021/09/19 14:25:53;;;;;;;5.35;2.90;;;;;;;;;;5014319;28;20626;-68
2021/09/19 14:28:19;;;;;;;9.38;3.42;;;;;;;;;;5014568;28;20103;-68
2021/09/19 14:30:45;;;;;;;6.65;3.40;;;;;;;;;;5016142;28;20494;-68
2021/09/19 14:33:12;;;;;;;4.63;3.28;;;;;;;;;;5011583;28;20038;-68
2021/09/19 14:35:38;;;;;;;4.60;3.40;;;;;;;;;;5013752;28;20474;-67
2021/09/19 14:38:04;;;;;;;3.45;2.63;;;;;;;;;;5010359;28;20048;-68
2021/09/19 14:40:30;;;;;;;4.68;2.97;;;;;;;;;;5001279;28;20049;-68
2021/09/19 14:42:56;;;;;;;5.60;3.20;;;;;;;;;;5011181;28;20048;-68